Joanna — FGD5080 — position and weather

sailwx.info

Track history (hours):
 
Tides and Currents Weather Stations Pressure Air Temp Water Temp Dewpoint Dewpoint Depression Visibility Wind Speed Wind Dir Waves Ship Positions

Joanna

Last reported at 2018-Aug-17 00:20 UTC. Time now 2018-Aug-17 11:39 UTC.
Position N 48°34' W 004°48'.

Length 10 m.

Type: Sailing vessel. MMSI: 227566870.

Date/timePositionNaut miles runAvg speedWind from/ knotsBaromVisibWave heightAir tempDewpointWater temp
2018-Aug-17 00:20N 48°34' W 004°48'1 4.2
2018-Aug-17 00:00N 48°33' W 004°49'2 4.8
2018-Aug-16 23:30N 48°31' W 004°50'3 5.4
2018-Aug-16 22:58N 48°28' W 004°50'5 4.8
2018-Aug-16 21:58N 48°23' W 004°49'3 3.3
2018-Aug-16 20:58N 48°20' W 004°49'3 4.4
2018-Aug-16 20:15N 48°17' W 004°46'1 5.3
2018-Aug-16 19:59N 48°17' W 004°44'3 5.4
2018-Aug-16 19:30N 48°16' W 004°40'3 5.0
2018-Aug-16 19:00N 48°13' W 004°41'5 5.9
2018-Aug-16 18:10N 48°09' W 004°44'1 5.2
2018-Aug-16 17:58N 48°08' W 004°45'  
Track history (hours):
 
Tides and Currents Weather Stations Pressure Air Temp Water Temp Dewpoint Dewpoint Depression Visibility Wind Speed Wind Dir Waves Ship Positions

Joanna

Last reported at 2018-Aug-17 00:20 UTC. Time now 2018-Aug-17 11:39 UTC.
Position N 48°34' W 004°48'.

Length 10 m.

Type: Sailing vessel. MMSI: 227566870.

Date/timePositionNaut miles runAvg speedWind from/ knotsBaromVisibWave heightAir tempDewpointWater temp
2018-Aug-17 00:20N 48°34' W 004°48'1 4.2
2018-Aug-17 00:00N 48°33' W 004°49'2 4.8
2018-Aug-16 23:30N 48°31' W 004°50'3 5.4
2018-Aug-16 22:58N 48°28' W 004°50'5 4.8
2018-Aug-16 21:58N 48°23' W 004°49'3 3.3
2018-Aug-16 20:58N 48°20' W 004°49'3 4.4
2018-Aug-16 20:15N 48°17' W 004°46'1 5.3
2018-Aug-16 19:59N 48°17' W 004°44'3 5.4
2018-Aug-16 19:30N 48°16' W 004°40'3 5.0
2018-Aug-16 19:00N 48°13' W 004°41'5 5.9
2018-Aug-16 18:10N 48°09' W 004°44'1 5.2
2018-Aug-16 17:58N 48°08' W 004°45'  

Dump ship's entire track history